Time;durP1;ratioP1;P1;durP2;ratioP2;P2;SDS_P1;SDS_P2;PMS_P1;PMS_P2;Temp;Humidity;BMP_temperature;BMP_pressure;BME280_temperature;BME280_humidity;BME280_pressure;Samples;Min_cycle;Max_cycle;Signal;HPM_P1;HPM_P2
2023/05/13 00:01:06;;;;;;;11.73;5.05;;;14.00;90.60;;;;;;5076475;28;20540;-69
2023/05/13 00:03:32;;;;;;;8.98;5.63;;;14.00;90.50;;;;;;5076318;28;20492;-70
2023/05/13 00:05:58;;;;;;;7.15;4.80;;;14.00;91.10;;;;;;5076283;28;20126;-70
2023/05/13 00:08:23;;;;;;;8.48;5.05;;;14.00;90.90;;;;;;5076462;28;20115;-69
2023/05/13 00:10:49;;;;;;;10.30;5.07;;;13.90;91.10;;;;;;5059795;28;20040;-69
2023/05/13 00:13:15;;;;;;;10.20;5.18;;;13.90;91.20;;;;;;5076011;28;20036;-69
2023/05/13 00:15:40;;;;;;;9.80;4.93;;;13.90;91.40;;;;;;5076140;28;20055;-69
2023/05/13 00:18:06;;;;;;;8.60;4.85;;;13.90;91.70;;;;;;5075941;28;20047;-69
2023/05/13 00:20:32;;;;;;;10.07;5.00;;;13.80;91.80;;;;;;5075991;28;20105;-70
2023/05/13 00:22:57;;;;;;;7.40;5.20;;;13.80;91.90;;;;;;5075834;28;20048;-69
2023/05/13 00:25:23;;;;;;;7.93;5.03;;;13.70;92.10;;;;;;5076244;28;20043;-70
2023/05/13 00:27:49;;;;;;;8.30;5.35;;;13.70;92.30;;;;;;5075877;28;20106;-70
2023/05/13 00:30:14;;;;;;;8.55;5.07;;;13.70;92.50;;;;;;5059167;28;20036;-69
2023/05/13 00:32:40;;;;;;;8.05;5.40;;;13.70;92.80;;;;;;5076084;28;20048;-69
2023/05/13 00:35:06;;;;;;;8.90;5.50;;;13.70;92.90;;;;;;5076059;28;20492;-69
2023/05/13 00:37:31;;;;;;;11.70;5.88;;;13.60;93.10;;;;;;5075688;28;20055;-69
2023/05/13 00:39:58;;;;;;;8.82;5.80;;;13.60;93.20;;;;;;5075618;28;20055;-69
2023/05/13 00:42:23;;;;;;;8.77;5.50;;;13.60;93.40;;;;;;5059031;28;20066;-70
2023/05/13 00:44:50;;;;;;;9.80;5.57;;;13.60;93.60;;;;;;5075614;28;20481;-70
2023/05/13 00:47:16;;;;;;;7.90;5.18;;;13.50;93.90;;;;;;5075519;28;20047;-70
2023/05/13 00:49:42;;;;;;;8.98;5.30;;;13.50;94.10;;;;;;5075751;28;20436;-70
2023/05/13 00:52:08;;;;;;;8.00;5.53;;;13.40;94.40;;;;;;5075477;28;20609;-70
2023/05/13 00:54:33;;;;;;;9.65;5.80;;;13.40;94.90;;;;;;5075725;28;20173;-70
2023/05/13 00:56:59;;;;;;;10.13;5.80;;;13.40;94.60;;;;;;5075432;28;20051;-70
2023/05/13 00:59:27;;;;;;;7.47;5.25;;;13.40;94.80;;;;;;5075192;28;20039;-69
2023/05/13 01:02:13;;;;;;;7.25;5.25;;;13.40;95.00;;;;;;5075260;28;20044;-69
2023/05/13 01:05:02;;;;;;;8.73;5.72;;;13.30;95.10;;;;;;5075324;28;20043;-70
2023/05/13 01:07:59;;;;;;;7.47;5.38;;;13.30;95.20;;;;;;5058824;28;20051;-70
2023/05/13 01:10:27;;;;;;;9.07;5.30;;;13.30;95.70;;;;;;5058386;28;20443;-69
2023/05/13 01:12:59;;;;;;;10.98;5.72;;;13.30;95.60;;;;;;5075490;28;20101;-69
2023/05/13 01:15:26;;;;;;;9.57;5.55;;;13.30;96.10;;;;;;5075193;28;20039;-70
2023/05/13 01:18:16;;;;;;;9.45;5.93;;;13.30;96.10;;;;;;5075245;28;20043;-70
2023/05/13 01:20:43;;;;;;;9.13;5.78;;;13.20;96.20;;;;;;5075116;28;20048;-69
2023/05/13 01:23:10;;;;;;;7.45;5.50;;;13.20;96.40;;;;;;5075443;28;20089;-70
2023/05/13 01:25:38;;;;;;;8.88;5.63;;;13.20;96.40;;;;;;5074775;28;20534;-70
2023/05/13 01:28:05;;;;;;;11.32;5.97;;;13.10;96.60;;;;;;5074993;28;20028;-70
2023/05/13 01:30:30;;;;;;;11.80;5.20;;;13.10;96.80;;;;;;5075018;28;20043;-69
2023/05/13 01:32:57;;;;;;;7.63;5.32;;;13.10;97.00;;;;;;5075006;28;20040;-70
2023/05/13 01:35:23;;;;;;;7.18;5.43;;;13.00;97.10;;;;;;5058395;28;20048;-70
2023/05/13 01:37:49;;;;;;;9.95;5.90;;;13.00;97.40;;;;;;5075205;28;20492;-70
2023/05/13 01:40:15;;;;;;;9.93;5.78;;;13.00;97.70;;;;;;5075088;28;20043;-69
2023/05/13 01:42:42;;;;;;;9.68;6.30;;;12.90;97.70;;;;;;5074876;28;20065;-70
2023/05/13 01:45:08;;;;;;;14.02;6.03;;;12.90;97.90;;;;;;5074925;28;20123;-70
2023/05/13 01:47:34;;;;;;;8.95;5.60;;;12.90;98.00;;;;;;5074905;28;20040;-69
2023/05/13 01:49:59;;;;;;;11.57;5.70;;;12.90;98.10;;;;;;5092807;28;20047;-69
2023/05/13 01:52:25;;;;;;;10.00;5.95;;;12.80;98.10;;;;;;5074865;28;20040;-69
2023/05/13 01:54:50;;;;;;;11.65;6.32;;;12.80;98.40;;;;;;5075108;28;20094;-69
2023/05/13 01:57:16;;;;;;;10.30;6.07;;;12.80;98.40;;;;;;5075070;28;20405;-69
2023/05/13 01:59:42;;;;;;;9.30;6.20;;;12.80;98.50;;;;;;5074588;28;20036;-69
2023/05/13 02:02:07;;;;;;;10.30;6.25;;;12.80;98.60;;;;;;5074911;28;20079;-70
2023/05/13 02:04:33;;;;;;;8.73;6.28;;;12.80;98.80;;;;;;5074769;28;20507;-70
2023/05/13 02:06:58;;;;;;;9.40;6.70;;;12.80;98.80;;;;;;5058320;28;20032;-70
2023/05/13 02:09:24;;;;;;;9.40;6.57;;;12.80;98.90;;;;;;5074644;28;20480;-70
2023/05/13 02:11:50;;;;;;;7.70;5.93;;;12.70;98.90;;;;;;5074729;28;20044;-70
2023/05/13 02:14:16;;;;;;;7.35;6.53;;;12.70;99.10;;;;;;5074673;28;20043;-70
2023/05/13 02:16:41;;;;;;;9.85;6.35;;;12.70;99.20;;;;;;5074612;28;20040;-69
2023/05/13 02:19:07;;;;;;;10.40;6.72;;;12.70;99.30;;;;;;5074573;28;20119;-69
2023/05/13 02:21:33;;;;;;;8.43;6.55;;;12.70;99.40;;;;;;5074476;28;20093;-69
2023/05/13 02:23:58;;;;;;;13.57;6.68;;;12.70;99.50;;;;;;5074577;28;20044;-69
2023/05/13 02:26:24;;;;;;;12.68;7.07;;;12.60;99.70;;;;;;5074828;28;20040;-69
2023/05/13 02:28:49;;;;;;;11.10;6.53;;;12.60;99.70;;;;;;5074423;28;20040;-69
2023/05/13 02:31:15;;;;;;;13.02;6.60;;;12.60;99.90;;;;;;5057825;28;20110;-70
2023/05/13 02:33:41;;;;;;;10.32;6.25;;;12.50;99.90;;;;;;5074527;28;20040;-70
2023/05/13 02:36:06;;;;;;;10.05;7.10;;;12.50;99.90;;;;;;5074445;28;20032;-70
2023/05/13 02:38:32;;;;;;;10.25;7.53;;;12.50;99.90;;;;;;5077364;28;20097;-70
2023/05/13 02:41:00;;;;;;;10.23;6.80;;;12.40;99.90;;;;;;5078178;28;20054;-69
2023/05/13 02:43:26;;;;;;;11.23;7.25;;;12.40;99.90;;;;;;5061233;28;20039;-70
2023/05/13 02:45:52;;;;;;;10.23;6.97;;;12.30;99.90;;;;;;5077847;28;20043;-70
2023/05/13 02:48:18;;;;;;;12.27;7.82;;;12.30;99.90;;;;;;5095891;28;20055;-69
2023/05/13 02:50:43;;;;;;;10.07;7.75;;;12.20;99.90;;;;;;5077747;28;20047;-69
2023/05/13 02:53:09;;;;;;;9.43;7.43;;;12.10;99.90;;;;;;5077754;28;20044;-69
2023/05/13 02:55:35;;;;;;;12.02;7.10;;;12.10;99.90;;;;;;5078000;28;20059;-69
2023/05/13 02:58:00;;;;;;;12.32;7.80;;;12.10;99.90;;;;;;5077636;28;20412;-69
2023/05/13 03:00:26;;;;;;;11.57;7.40;;;12.00;99.90;;;;;;5077401;28;20089;-69
2023/05/13 03:02:51;;;;;;;10.27;7.55;;;12.00;99.90;;;;;;5077501;28;20040;-70
2023/05/13 03:05:17;;;;;;;11.50;8.57;;;12.00;99.90;;;;;;5077503;28;20085;-70
2023/05/13 03:07:42;;;;;;;16.73;8.80;;;11.90;99.90;;;;;;5077507;28;20043;-69
2023/05/13 03:10:08;;;;;;;12.70;8.15;;;11.90;99.90;;;;;;5077450;28;20112;-69
2023/05/13 03:12:34;;;;;;;11.23;8.00;;;11.90;99.90;;;;;;5077365;28;20039;-69
2023/05/13 03:14:59;;;;;;;10.85;8.32;;;11.90;99.90;;;;;;5077392;28;20044;-69
2023/05/13 03:17:25;;;;;;;13.05;8.38;;;11.90;99.90;;;;;;5077351;28;20048;-69
2023/05/13 03:19:51;;;;;;;14.40;8.35;;;11.90;99.90;;;;;;5077171;28;20122;-69
2023/05/13 03:22:17;;;;;;;14.10;8.38;;;11.80;99.90;;;;;;5077369;28;20122;-69
2023/05/13 03:24:43;;;;;;;11.82;8.93;;;11.80;99.90;;;;;;5077102;28;20484;-69
2023/05/13 03:27:08;;;;;;;11.18;7.85;;;11.80;99.90;;;;;;5077115;28;20085;-70
2023/05/13 03:29:34;;;;;;;11.95;8.35;;;11.80;99.90;;;;;;5060329;28;20036;-69
2023/05/13 03:32:00;;;;;;;15.18;8.95;;;11.80;99.90;;;;;;5077043;28;20047;-69
2023/05/13 03:34:25;;;;;;;14.23;9.18;;;11.80;99.90;;;;;;5095658;28;20160;-69
2023/05/13 03:36:51;;;;;;;11.23;8.80;;;11.70;99.90;;;;;;5077230;28;20446;-69
2023/05/13 03:39:16;;;;;;;11.93;8.60;;;11.70;99.90;;;;;;5076857;28;20032;-69
2023/05/13 03:41:43;;;;;;;19.30;9.00;;;11.70;99.90;;;;;;5060334;28;20036;-69
2023/05/13 03:44:08;;;;;;;10.52;9.32;;;11.80;99.90;;;;;;5077003;28;20063;-69
2023/05/13 03:46:34;;;;;;;11.68;8.90;;;11.70;99.90;;;;;;5076710;28;20481;-69
2023/05/13 03:48:59;;;;;;;12.90;8.25;;;11.70;99.90;;;;;;5076187;28;20043;-69
2023/05/13 03:51:25;;;;;;;10.98;8.85;;;11.70;99.90;;;;;;5076886;28;20119;-69
2023/05/13 03:53:51;;;;;;;13.23;9.07;;;11.70;99.90;;;;;;5059963;28;20043;-69
2023/05/13 03:56:16;;;;;;;14.02;9.02;;;11.70;99.90;;;;;;5076838;28;20032;-70
2023/05/13 03:58:42;;;;;;;11.02;8.52;;;11.70;99.90;;;;;;5076366;28;20454;-70
2023/05/13 04:01:07;;;;;;;10.68;9.45;;;11.70;99.90;;;;;;5076337;28;20036;-70
2023/05/13 04:03:33;;;;;;;11.75;8.90;;;11.70;99.90;;;;;;5076298;28;20079;-70
2023/05/13 04:05:59;;;;;;;15.10;9.77;;;11.70;99.90;;;;;;5076345;28;20040;-70
2023/05/13 04:08:26;;;;;;;12.05;8.88;;;11.70;99.90;;;;;;5076120;28;20447;-70
2023/05/13 04:10:52;;;;;;;11.40;9.50;;;11.70;99.90;;;;;;5076200;28;20082;-70
2023/05/13 04:13:18;;;;;;;13.73;9.25;;;11.70;99.90;;;;;;5076129;28;20043;-70
2023/05/13 04:15:44;;;;;;;15.80;9.55;;;11.70;99.90;;;;;;5076140;28;20450;-69
2023/05/13 04:18:09;;;;;;;17.27;9.65;;;11.70;99.90;;;;;;5059361;28;20036;-70
2023/05/13 04:20:38;;;;;;;12.90;9.65;;;11.70;99.90;;;;;;5059438;28;20039;-70
2023/05/13 04:23:04;;;;;;;14.05;9.90;;;11.80;99.90;;;;;;5075920;28;20075;-69
2023/05/13 04:25:30;;;;;;;14.80;9.80;;;11.80;99.90;;;;;;5059352;28;20040;-69
2023/05/13 04:27:56;;;;;;;11.55;9.40;;;11.80;99.90;;;;;;5059209;28;20028;-69
2023/05/13 04:30:22;;;;;;;13.70;9.90;;;11.80;99.90;;;;;;5075813;28;20032;-69
2023/05/13 04:32:47;;;;;;;11.80;9.13;;;11.80;99.90;;;;;;5059228;28;20032;-69
2023/05/13 04:35:13;;;;;;;11.48;9.63;;;11.80;99.90;;;;;;5075772;28;20144;-69
2023/05/13 04:37:38;;;;;;;15.00;9.30;;;11.90;99.90;;;;;;5075964;28;20048;-69
2023/05/13 04:40:05;;;;;;;15.23;9.35;;;11.90;99.90;;;;;;5075886;28;20035;-69
2023/05/13 04:42:31;;;;;;;12.25;9.48;;;11.90;99.90;;;;;;5075561;28;20059;-69
2023/05/13 04:44:57;;;;;;;11.68;8.70;;;11.90;99.90;;;;;;5075861;28;20032;-69
2023/05/13 04:47:22;;;;;;;14.77;9.32;;;11.90;99.90;;;;;;5058817;28;20396;-69
2023/05/13 04:49:48;;;;;;;15.15;9.75;;;12.00;99.90;;;;;;5076145;28;20040;-69
2023/05/13 04:52:13;;;;;;;12.93;9.43;;;12.00;99.90;;;;;;5059144;28;20048;-69
2023/05/13 04:54:39;;;;;;;12.75;9.15;;;12.00;99.90;;;;;;5058875;28;20036;-69
2023/05/13 04:57:05;;;;;;;14.30;8.75;;;12.10;99.90;;;;;;5059000;28;20035;-69
2023/05/13 04:59:31;;;;;;;10.90;9.25;;;12.10;99.90;;;;;;5074707;28;20055;-69
2023/05/13 05:01:57;;;;;;;10.95;8.77;;;12.20;99.90;;;;;;5075125;28;20044;-69
2023/05/13 05:04:24;;;;;;;11.90;9.10;;;12.20;99.90;;;;;;5058621;28;20036;-69
2023/05/13 05:06:49;;;;;;;15.02;9.15;;;12.20;99.90;;;;;;5075328;28;20096;-69
2023/05/13 05:09:16;;;;;;;13.80;9.82;;;12.30;99.90;;;;;;5075195;28;20114;-69
2023/05/13 05:11:42;;;;;;;12.68;8.52;;;12.30;99.90;;;;;;5075294;28;20043;-70
2023/05/13 05:14:07;;;;;;;16.08;8.77;;;12.40;99.90;;;;;;5075291;28;20084;-69
2023/05/13 05:16:33;;;;;;;13.70;9.30;;;12.40;99.90;;;;;;5075278;28;20043;-70
2023/05/13 05:18:59;;;;;;;13.05;8.65;;;12.40;99.90;;;;;;5075343;28;20035;-69
2023/05/13 05:21:24;;;;;;;11.73;9.10;;;12.50;99.90;;;;;;5075159;28;20040;-69
2023/05/13 05:23:50;;;;;;;13.98;8.63;;;12.60;99.90;;;;;;5075456;28;20048;-69
2023/05/13 05:26:15;;;;;;;12.10;8.43;;;12.60;99.90;;;;;;5075106;28;20043;-69
2023/05/13 05:28:42;;;;;;;10.80;8.32;;;12.60;99.90;;;;;;5075123;28;20043;-69
2023/05/13 05:31:08;;;;;;;13.25;7.88;;;12.70;99.90;;;;;;5075290;28;20040;-69
2023/05/13 05:33:35;;;;;;;16.02;8.82;;;12.70;99.90;;;;;;5075341;28;20044;-69
2023/05/13 05:36:00;;;;;;;9.27;8.23;;;12.80;99.90;;;;;;5075041;28;20122;-69
2023/05/13 05:38:26;;;;;;;12.98;8.05;;;12.80;99.90;;;;;;5058108;28;20147;-69
2023/05/13 05:40:52;;;;;;;12.82;8.57;;;12.80;99.90;;;;;;5075211;28;20035;-69
2023/05/13 05:43:18;;;;;;;11.40;8.35;;;12.90;99.90;;;;;;5075015;28;20592;-69
2023/05/13 05:45:44;;;;;;;15.27;7.43;;;12.90;99.90;;;;;;5075181;28;20485;-69
2023/05/13 05:48:10;;;;;;;13.32;8.30;;;13.00;99.90;;;;;;5074854;28;20068;-69
2023/05/13 05:50:35;;;;;;;10.40;7.75;;;13.00;99.90;;;;;;5093573;28;20075;-69
2023/05/13 05:53:02;;;;;;;13.30;7.68;;;13.10;99.90;;;;;;5074784;28;20501;-69
2023/05/13 05:55:27;;;;;;;14.02;7.72;;;13.10;99.90;;;;;;5075033;28;20475;-69
2023/05/13 05:57:54;;;;;;;11.88;8.05;;;13.20;99.90;;;;;;5074765;28;20079;-69
2023/05/13 06:00:20;;;;;;;15.88;7.80;;;13.20;99.90;;;;;;5057777;28;20071;-69
2023/05/13 06:02:47;;;;;;;11.73;7.75;;;13.30;99.90;;;;;;5074812;28;20076;-69
2023/05/13 06:05:13;;;;;;;17.50;8.13;;;13.30;99.90;;;;;;5074690;28;20543;-69
2023/05/13 06:07:39;;;;;;;13.25;8.07;;;13.40;99.90;;;;;;5074707;28;20040;-69
2023/05/13 06:10:06;;;;;;;12.55;7.30;;;13.40;99.90;;;;;;5057871;28;20089;-69
2023/05/13 06:12:31;;;;;;;11.23;7.65;;;13.50;99.90;;;;;;5077583;28;20044;-69
2023/05/13 06:14:57;;;;;;;13.00;7.28;;;13.60;99.90;;;;;;5078430;28;20051;-69
2023/05/13 06:17:24;;;;;;;14.57;7.88;;;13.60;99.90;;;;;;5078390;28;20122;-69
2023/05/13 06:19:49;;;;;;;13.60;7.63;;;13.70;99.90;;;;;;5078210;28;20086;-69
2023/05/13 06:22:15;;;;;;;11.55;6.80;;;13.70;99.90;;;;;;5078217;28;20082;-69
2023/05/13 06:24:43;;;;;;;12.35;7.13;;;13.80;99.90;;;;;;5078308;28;20040;-69
2023/05/13 06:27:10;;;;;;;12.55;7.07;;;13.90;99.90;;;;;;5078222;28;20119;-69
2023/05/13 06:29:36;;;;;;;10.30;7.35;;;13.90;99.90;;;;;;5078029;28;20032;-69
2023/05/13 06:32:02;;;;;;;10.68;7.00;;;14.00;99.90;;;;;;5078422;28;20096;-70
2023/05/13 06:34:28;;;;;;;16.60;7.65;;;14.10;99.90;;;;;;5061691;28;20405;-70
2023/05/13 06:36:53;;;;;;;11.90;6.88;;;14.10;99.90;;;;;;5078125;28;20032;-69
2023/05/13 06:39:19;;;;;;;11.15;7.60;;;14.20;99.90;;;;;;5078320;28;20040;-69
2023/05/13 06:41:45;;;;;;;11.02;6.65;;;14.20;99.90;;;;;;5077912;28;20127;-69
2023/05/13 06:44:10;;;;;;;10.70;6.50;;;14.30;99.90;;;;;;5061274;28;20038;-69
2023/05/13 06:46:36;;;;;;;9.18;7.15;;;14.30;99.90;;;;;;5077833;28;20032;-69
2023/05/13 06:49:01;;;;;;;8.35;6.70;;;14.40;99.90;;;;;;5077809;28;20093;-69
2023/05/13 06:51:27;;;;;;;11.65;6.22;;;14.50;99.90;;;;;;5078115;28;20081;-69
2023/05/13 06:53:54;;;;;;;9.88;7.22;;;14.60;99.90;;;;;;5061056;28;20119;-69
2023/05/13 06:56:23;;;;;;;9.57;6.28;;;14.70;99.90;;;;;;5077729;28;20093;-69
2023/05/13 06:58:52;;;;;;;9.32;6.50;;;14.80;99.90;;;;;;5077482;28;20044;-69
2023/05/13 07:01:18;;;;;;;10.40;7.22;;;14.90;99.90;;;;;;5060902;28;20448;-70
2023/05/13 07:03:44;;;;;;;12.60;7.10;;;15.00;99.90;;;;;;5077516;28;20089;-69
2023/05/13 07:06:10;;;;;;;11.60;6.68;;;15.10;99.90;;;;;;5077519;28;20040;-69
2023/05/13 07:08:36;;;;;;;10.60;7.00;;;15.10;99.90;;;;;;5077767;28;20038;-69
2023/05/13 07:11:02;;;;;;;11.13;6.78;;;15.20;99.90;;;;;;5077726;28;20039;-69
2023/05/13 07:13:28;;;;;;;11.13;6.88;;;15.20;99.90;;;;;;5077424;28;20412;-69
2023/05/13 07:15:54;;;;;;;11.43;6.80;;;15.30;99.90;;;;;;5077330;28;20048;-69
2023/05/13 07:18:20;;;;;;;12.13;6.93;;;15.40;99.90;;;;;;5077470;28;20050;-70
2023/05/13 07:20:45;;;;;;;8.50;6.55;;;15.50;99.90;;;;;;5077298;28;20419;-70
2023/05/13 07:23:11;;;;;;;14.10;7.20;;;15.50;99.90;;;;;;5076457;28;20043;-70
2023/05/13 07:25:37;;;;;;;11.13;6.53;;;15.60;99.90;;;;;;5077167;28;20051;-70
2023/05/13 07:28:03;;;;;;;12.50;6.60;;;15.70;99.90;;;;;;5077351;28;20047;-70
2023/05/13 07:30:29;;;;;;;10.45;6.55;;;15.80;99.90;;;;;;5077464;28;20056;-70
2023/05/13 07:32:54;;;;;;;12.35;6.40;;;15.90;99.90;;;;;;5077122;28;20390;-70
2023/05/13 07:35:20;;;;;;;12.55;6.30;;;16.10;99.90;;;;;;5077064;28;20043;-70
2023/05/13 07:37:46;;;;;;;10.07;6.45;;;16.20;99.70;;;;;;5077190;28;20044;-70
2023/05/13 07:40:12;;;;;;;10.93;7.63;;;16.30;99.50;;;;;;5076811;28;20412;-69
2023/05/13 07:42:38;;;;;;;10.73;5.85;;;16.40;99.10;;;;;;5076877;28;20044;-69
2023/05/13 07:45:05;;;;;;;8.15;5.95;;;16.50;98.90;;;;;;5076826;28;20081;-70
2023/05/13 07:47:32;;;;;;;9.00;6.82;;;16.70;99.00;;;;;;5076721;28;20078;-70
2023/05/13 07:49:58;;;;;;;14.57;5.97;;;16.80;98.50;;;;;;5076609;28;20036;-70
2023/05/13 07:52:23;;;;;;;9.80;6.80;;;16.80;98.10;;;;;;5076568;28;20079;-70
2023/05/13 07:54:49;;;;;;;11.93;5.65;;;16.90;97.60;;;;;;5076644;28;20047;-69
2023/05/13 07:57:15;;;;;;;9.60;5.50;;;17.00;97.40;;;;;;5076887;28;20043;-69
2023/05/13 07:59:40;;;;;;;11.32;5.80;;;17.10;97.10;;;;;;5094473;28;20515;-69
2023/05/13 08:02:06;;;;;;;8.82;4.80;;;17.20;97.10;;;;;;5076292;28;20519;-69
2023/05/13 08:04:32;;;;;;;8.15;4.50;;;17.30;96.40;;;;;;5076537;28;20044;-69
2023/05/13 08:07:00;;;;;;;7.88;4.20;;;17.50;95.00;;;;;;5076338;28;20492;-69
2023/05/13 08:09:26;;;;;;;9.43;4.10;;;17.60;93.20;;;;;;5076204;28;20081;-70
2023/05/13 08:11:51;;;;;;;12.52;4.60;;;17.60;92.50;;;;;;5076209;28;20117;-69
2023/05/13 08:14:17;;;;;;;8.95;4.25;;;17.70;92.20;;;;;;5076366;28;20044;-69
2023/05/13 08:16:42;;;;;;;7.40;3.50;;;17.90;91.00;;;;;;5075888;28;20492;-69
2023/05/13 08:19:08;;;;;;;10.57;4.28;;;18.00;90.40;;;;;;5059940;28;20198;-69
2023/05/13 08:21:34;;;;;;;7.78;3.80;;;18.10;90.20;;;;;;5075868;28;20459;-69
2023/05/13 08:24:00;;;;;;;10.30;3.80;;;18.20;89.70;;;;;;5075777;28;20117;-69
2023/05/13 08:26:26;;;;;;;13.32;4.13;;;18.30;88.10;;;;;;5075873;28;20046;-69
2023/05/13 08:28:51;;;;;;;11.45;3.85;;;18.50;88.40;;;;;;5075778;28;20127;-69
2023/05/13 08:31:17;;;;;;;12.27;3.08;;;18.70;85.90;;;;;;5075834;28;20027;-69
2023/05/13 08:33:44;;;;;;;9.15;3.38;;;18.80;83.50;;;;;;5059114;28;20039;-69
2023/05/13 08:36:10;;;;;;;8.38;2.90;;;19.00;83.30;;;;;;5075964;28;20044;-69
2023/05/13 08:38:36;;;;;;;5.57;3.20;;;19.10;83.20;;;;;;5075638;28;20047;-69
2023/05/13 08:41:05;;;;;;;28.90;3.78;;;19.20;83.50;;;;;;5076020;28;20036;-69
2023/05/13 08:43:31;;;;;;;8.07;3.10;;;19.40;81.50;;;;;;5075639;28;20048;-70
2023/05/13 08:46:02;;;;;;;10.13;3.50;;;19.50;81.30;;;;;;5059180;28;20044;-70
2023/05/13 08:48:28;;;;;;;10.27;3.45;;;19.70;80.60;;;;;;5093844;28;20407;-70
2023/05/13 08:50:55;;;;;;;8.50;3.10;;;19.80;80.90;;;;;;5075740;28;20507;-70
2023/05/13 08:53:23;;;;;;;7.85;3.05;;;20.10;80.20;;;;;;5075767;28;20036;-70
2023/05/13 08:55:50;;;;;;;10.50;3.08;;;20.20;80.10;;;;;;5075541;28;20048;-70
2023/05/13 08:58:15;;;;;;;7.38;2.97;;;20.30;77.70;;;;;;5058717;28;20101;-70
2023/05/13 09:00:41;;;;;;;8.55;3.22;;;20.50;75.60;;;;;;5075272;28;20082;-70
2023/05/13 09:03:07;;;;;;;7.32;2.92;;;20.60;77.10;;;;;;5075357;28;20071;-70
2023/05/13 09:05:35;;;;;;;8.02;2.70;;;20.70;76.20;;;;;;5059185;28;20127;-70
2023/05/13 09:08:07;;;;;;;6.95;3.40;;;20.80;75.90;;;;;;5075321;28;20126;-70
2023/05/13 09:10:32;;;;;;;5.47;3.10;;;20.90;75.40;;;;;;5075534;28;20044;-70
2023/05/13 09:13:00;;;;;;;9.50;3.25;;;21.10;74.40;;;;;;5075242;28;20039;-69
2023/05/13 09:15:27;;;;;;;5.25;2.95;;;21.10;73.10;;;;;;5075276;28;20044;-69
2023/05/13 09:18:06;;;;;;;6.93;2.80;;;21.20;72.80;;;;;;5075120;28;20048;-70
2023/05/13 09:20:33;;;;;;;7.88;3.00;;;21.30;72.40;;;;;;5075471;28;20126;-70
2023/05/13 09:23:02;;;;;;;8.90;3.08;;;21.40;71.00;;;;;;5075011;28;20036;-70
2023/05/13 09:25:29;;;;;;;9.55;3.03;;;21.50;70.60;;;;;;5075121;28;20120;-69
2023/05/13 09:27:57;;;;;;;6.72;2.60;;;21.70;70.70;;;;;;5075353;28;20036;-69
2023/05/13 09:30:32;;;;;;;7.57;2.72;;;21.90;69.80;;;;;;5075024;28;20085;-70
2023/05/13 09:33:03;;;;;;;5.18;2.35;;;21.90;67.00;;;;;;5058392;28;20058;-70
2023/05/13 09:35:30;;;;;;;5.95;2.40;;;22.00;65.40;;;;;;5075019;28;20074;-70
2023/05/13 09:37:56;;;;;;;7.40;2.40;;;22.10;65.60;;;;;;5058290;28;20036;-71
2023/05/13 09:40:22;;;;;;;8.48;2.30;;;22.20;65.20;;;;;;5058170;28;20044;-69
2023/05/13 09:42:48;;;;;;;6.55;2.60;;;22.30;64.00;;;;;;5075086;28;20040;-70
2023/05/13 09:45:15;;;;;;;9.27;3.08;;;22.50;64.20;;;;;;5058213;28;20485;-70
2023/05/13 09:47:41;;;;;;;9.50;2.70;;;22.60;64.70;;;;;;5078228;28;20047;-70
2023/05/13 09:50:09;;;;;;;7.47;2.70;;;22.60;64.40;;;;;;5079192;28;20044;-70
2023/05/13 09:52:36;;;;;;;7.38;2.80;;;22.80;65.20;;;;;;5078914;28;20036;-70
2023/05/13 09:55:05;;;;;;;10.82;2.55;;;22.90;64.40;;;;;;5062234;28;20118;-70
2023/05/13 09:57:31;;;;;;;11.52;2.65;;;23.00;62.90;;;;;;5078812;28;20055;-70
2023/05/13 10:00:03;;;;;;;8.50;2.50;;;23.00;62.00;;;;;;5078824;28;20040;-70
2023/05/13 10:02:30;;;;;;;11.10;2.40;;;23.20;61.60;;;;;;5078708;28;20424;-70
2023/05/13 10:04:57;;;;;;;6.80;2.50;;;23.30;62.40;;;;;;5078697;28;20032;-70
2023/05/13 10:07:24;;;;;;;28.95;3.17;;;23.40;61.70;;;;;;5061950;28;20036;-70
2023/05/13 10:10:00;;;;;;;4.68;2.40;;;23.50;60.40;;;;;;5078545;28;20051;-70
2023/05/13 10:12:27;;;;;;;4.38;2.45;;;23.60;57.80;;;;;;5078613;28;20451;-70
2023/05/13 10:14:53;;;;;;;8.43;2.35;;;23.70;58.50;;;;;;5061850;28;20385;-70
2023/05/13 10:17:21;;;;;;;8.00;2.65;;;23.80;58.60;;;;;;5078699;28;20185;-70
2023/05/13 10:19:51;;;;;;;5.20;2.78;;;23.90;58.50;;;;;;5097037;28;20051;-70
2023/05/13 10:22:28;;;;;;;7.30;2.55;;;24.10;58.20;;;;;;5078467;28;20408;-70
2023/05/13 10:24:56;;;;;;;9.63;2.83;;;24.20;57.30;;;;;;5061996;28;20123;-70
2023/05/13 10:27:26;;;;;;;4.07;2.38;;;24.40;57.10;;;;;;5078274;28;20036;-70
2023/05/13 10:29:53;;;;;;;10.07;2.13;;;24.40;56.40;;;;;;5078122;28;20039;-70
2023/05/13 10:32:21;;;;;;;8.45;2.47;;;24.50;56.20;;;;;;5078445;28;20417;-70
2023/05/13 10:34:47;;;;;;;10.70;2.95;;;24.70;57.20;;;;;;5078062;28;20119;-70
2023/05/13 10:37:49;;;;;;;6.90;2.38;;;24.70;56.40;;;;;;5061394;28;20065;-70
2023/05/13 10:40:28;;;;;;;5.47;2.40;;;24.80;55.40;;;;;;5077985;28;20044;-70
2023/05/13 10:43:13;;;;;;;9.43;2.45;;;24.90;54.70;;;;;;5078055;28;20125;-70
2023/05/13 10:45:38;;;;;;;7.32;2.40;;;25.10;54.50;;;;;;5078310;28;20036;-70
2023/05/13 10:48:10;;;;;;;7.10;2.53;;;24.80;54.20;;;;;;5078044;28;20477;-70
2023/05/13 10:50:40;;;;;;;10.18;2.83;;;24.60;52.10;;;;;;5077777;28;20032;-70
2023/05/13 10:53:16;;;;;;;8.00;2.55;;;24.30;53.70;;;;;;5078021;28;20076;-70
2023/05/13 10:55:51;;;;;;;7.78;3.08;;;24.20;52.10;;;;;;5077663;28;20040;-70
2023/05/13 10:58:17;;;;;;;4.97;2.28;;;24.10;52.80;;;;;;5076641;28;20452;-70
2023/05/13 11:00:43;;;;;;;7.57;2.85;;;24.10;54.00;;;;;;5077603;28;20040;-70
2023/05/13 11:03:15;;;;;;;9.35;2.75;;;24.10;54.00;;;;;;5077533;28;20036;-69
2023/05/13 11:05:43;;;;;;;7.10;2.75;;;24.00;52.00;;;;;;5077769;28;20044;-69
2023/05/13 11:08:10;;;;;;;9.35;2.55;;;24.00;53.20;;;;;;5077320;28;20262;-70
2023/05/13 11:10:36;;;;;;;9.48;2.50;;;24.10;54.30;;;;;;5077637;28;20036;-70
2023/05/13 11:13:07;;;;;;;9.05;2.67;;;24.10;54.40;;;;;;5060757;28;20040;-69
2023/05/13 11:15:44;;;;;;;10.95;2.60;;;24.20;53.50;;;;;;5095489;28;20050;-69
2023/05/13 11:18:11;;;;;;;7.97;2.50;;;24.40;54.50;;;;;;5077428;28;20048;-70
2023/05/13 11:20:37;;;;;;;8.70;2.33;;;24.50;54.10;;;;;;5077385;28;20508;-70
2023/05/13 11:23:03;;;;;;;10.18;2.25;;;24.70;53.30;;;;;;5095312;28;20558;-69
2023/05/13 11:25:28;;;;;;;8.52;2.38;;;24.80;52.60;;;;;;5077111;28;20036;-70
2023/05/13 11:27:54;;;;;;;4.93;1.92;;;24.90;51.10;;;;;;5077458;28;20036;-70
2023/05/13 11:30:22;;;;;;;6.03;2.08;;;24.80;48.60;;;;;;5077055;28;20555;-70
2023/05/13 11:32:54;;;;;;;13.57;2.30;;;24.90;48.60;;;;;;5077046;28;20047;-70
2023/05/13 11:35:21;;;;;;;;;;;24.90;49.20;;;;;;5077431;28;20126;-70
2023/05/13 11:37:48;;;;;;;9.23;2.05;;;24.90;46.40;;;;;;5077245;28;19923;-70
2023/05/13 11:40:33;;;;;;;4.70;1.90;;;25.00;48.40;;;;;;5077126;28;20047;-70
2023/05/13 11:43:00;;;;;;;7.32;2.05;;;25.10;46.40;;;;;;5060137;28;20139;-70
2023/05/13 11:45:26;;;;;;;8.13;2.03;;;24.90;46.80;;;;;;5076775;28;20032;-70
2023/05/13 11:47:53;;;;;;;5.60;2.40;;;25.00;47.20;;;;;;5077053;28;20055;-70
2023/05/13 11:50:31;;;;;;;9.05;2.13;;;25.10;48.20;;;;;;5076707;28;20036;-70
2023/05/13 11:52:58;;;;;;;8.05;1.92;;;25.20;47.30;;;;;;5076877;28;20089;-70
2023/05/13 11:55:26;;;;;;;5.75;1.88;;;25.10;45.90;;;;;;5076565;28;20505;-70
2023/05/13 11:57:52;;;;;;;6.15;1.80;;;25.20;47.00;;;;;;5076801;28;20085;-70
2023/05/13 12:00:25;;;;;;;8.85;2.00;;;25.50;47.80;;;;;;5076214;28;20047;-70
2023/05/13 12:02:51;;;;;;;6.90;2.35;;;25.80;48.40;;;;;;5076504;28;20118;-70
2023/05/13 12:05:16;;;;;;;5.88;2.30;;;26.20;48.30;;;;;;5059769;28;20520;-70
2023/05/13 12:07:42;;;;;;;6.15;2.40;;;26.40;47.60;;;;;;5076621;28;20040;-70
2023/05/13 12:10:08;;;;;;;6.03;1.90;;;26.40;46.90;;;;;;5075894;28;20408;-68
2023/05/13 12:12:38;;;;;;;8.98;2.40;;;26.50;47.70;;;;;;5076235;28;20048;-70
2023/05/13 12:15:16;;;;;;;5.65;1.95;;;26.70;47.10;;;;;;5076486;28;20052;-70
2023/05/13 12:17:42;;;;;;;5.70;2.25;;;27.00;46.40;;;;;;5076058;28;20036;-72
2023/05/13 12:20:09;;;;;;;5.28;1.95;;;27.10;47.00;;;;;;5059471;28;20047;-73
2023/05/13 12:22:56;;;;;;;3.65;1.73;;;27.30;47.40;;;;;;5076165;28;20052;-73
2023/05/13 12:25:41;;;;;;;4.55;1.95;;;27.40;46.60;;;;;;5059021;28;20626;-73
2023/05/13 12:28:21;;;;;;;7.32;2.17;;;27.60;43.40;;;;;;5075935;28;20044;-72
2023/05/13 12:30:57;;;;;;;8.25;2.40;;;27.50;43.50;;;;;;5075794;28;20036;-72
2023/05/13 12:33:31;;;;;;;8.85;2.38;;;27.10;45.10;;;;;;5076076;28;20040;-73
2023/05/13 12:36:24;;;;;;;9.50;2.38;;;27.20;46.70;;;;;;5060612;28;20031;-73
2023/05/13 12:39:00;;;;;;;7.53;2.20;;;27.40;46.80;;;;;;5059339;28;20054;-73
2023/05/13 12:41:28;;;;;;;5.07;2.28;;;27.50;47.10;;;;;;5075801;28;20040;-73